Mission Viejo, California
Current Conditions -  °F | °C
As of 5:53 PM on Tuesday 21 Oct 2014 (Local Time) from KSNA Reporting Station
Few Clouds Few Clouds  
Wind Chill: 75°   Ceiling: Unl
Heat Index: 75°   Visibility: 10mi
Dew Point: 61°   Wind: 5mph
Humidity: 62%   Direction: 230°SW
Pressure: 29.83"   Gusts: NA
Location:  33.62°N, 117.67°W
Report Text: KSNA 220053Z 23004KT 10SM FEW250 24/16 A2983 RMK AO2 SLP101 T02390161 $
Loading
Personal Weather Stations






























Interactive Weather Map
Tropical Storm Tracking
New forecast layout! Learn more

10-Day Weather Forecast

Advertisements
Track Severe Weather on mobile